Time;durP1;ratioP1;P1;durP2;ratioP2;P2;SDS_P1;SDS_P2;PMS_P1;PMS_P2;Temp;Humidity;BMP_temperature;BMP_pressure;BME280_temperature;BME280_humidity;BME280_pressure;Samples;Min_cycle;Max_cycle;Signal;HPM_P1;HPM_P2
2024/04/06 00:01:41;;;;;;;11.93;4.20;;;11.60;99.90;;;;;;4972249;28;20045;-80
2024/04/06 00:04:07;;;;;;;11.10;4.07;;;11.60;99.90;;;;;;4997998;28;20057;-79
2024/04/06 00:06:33;;;;;;;16.38;4.63;;;11.60;99.90;;;;;;4969480;28;20068;-79
2024/04/06 00:08:59;;;;;;;13.18;4.43;;;11.60;99.90;;;;;;4973024;28;20045;-79
2024/04/06 00:11:25;;;;;;;13.50;4.25;;;11.70;99.90;;;;;;4980662;28;20542;-80
2024/04/06 00:13:51;;;;;;;13.30;4.40;;;11.60;99.90;;;;;;4982807;28;20707;-80
2024/04/06 00:16:18;;;;;;;14.07;4.10;;;11.60;99.90;;;;;;4972298;28;20433;-79
2024/04/06 00:18:43;;;;;;;14.73;5.05;;;11.60;99.90;;;;;;4982676;28;20053;-79
2024/04/06 00:21:09;;;;;;;11.10;4.90;;;11.60;99.90;;;;;;4987397;28;20042;-79
2024/04/06 00:23:35;;;;;;;13.20;4.78;;;11.60;99.90;;;;;;4967877;28;20112;-79
2024/04/06 00:26:01;;;;;;;13.88;5.28;;;11.50;99.90;;;;;;4979809;28;20058;-80
2024/04/06 00:28:26;;;;;;;13.43;4.68;;;11.60;99.90;;;;;;4971214;28;20065;-79
2024/04/06 00:30:54;;;;;;;12.75;4.50;;;11.50;99.90;;;;;;4999782;28;20081;-79
2024/04/06 00:33:21;;;;;;;13.60;4.72;;;11.50;99.90;;;;;;4971624;28;20081;-80
2024/04/06 00:35:46;;;;;;;12.27;5.00;;;11.50;99.90;;;;;;5021070;28;20041;-80
2024/04/06 00:38:13;;;;;;;11.63;4.45;;;11.50;99.90;;;;;;4968483;28;20104;-80
2024/04/06 00:40:39;;;;;;;16.25;5.05;;;11.50;99.90;;;;;;4985644;28;20054;-80
2024/04/06 00:43:05;;;;;;;13.50;4.50;;;11.50;99.90;;;;;;4986853;28;20045;-80
2024/04/06 00:45:31;;;;;;;13.25;5.03;;;11.50;99.90;;;;;;4971430;28;20065;-79
2024/04/06 00:47:57;;;;;;;16.85;4.82;;;11.50;99.90;;;;;;5020324;28;20042;-79
2024/04/06 00:50:23;;;;;;;13.52;4.70;;;11.60;99.90;;;;;;4981634;28;20056;-80
2024/04/06 00:52:52;;;;;;;11.05;4.93;;;11.60;99.90;;;;;;5013280;28;20052;-80
2024/04/06 00:55:18;;;;;;;15.52;4.50;;;11.60;99.90;;;;;;4988633;28;20076;-79
2024/04/06 00:57:44;;;;;;;14.27;4.85;;;11.60;99.90;;;;;;4984332;28;20077;-79
2024/04/06 01:00:10;;;;;;;14.82;5.20;;;11.60;99.90;;;;;;4988310;28;20050;-80
2024/04/06 01:02:40;;;;;;;10.38;4.47;;;11.60;99.90;;;;;;4975371;28;20718;-80
2024/04/06 01:05:06;;;;;;;16.80;4.57;;;11.60;99.90;;;;;;4965575;28;21122;-80
2024/04/06 01:07:32;;;;;;;18.25;4.90;;;11.60;99.90;;;;;;4967517;28;20651;-80
2024/04/06 01:09:58;;;;;;;13.13;4.43;;;11.60;99.90;;;;;;4967232;28;20061;-79
2024/04/06 01:12:24;;;;;;;15.90;4.95;;;11.60;99.90;;;;;;4990337;28;20044;-80
2024/04/06 01:14:50;;;;;;;12.40;4.25;;;11.60;99.90;;;;;;4978205;28;20038;-79
2024/04/06 01:17:24;;;;;;;11.07;4.50;;;11.60;99.90;;;;;;5000684;28;20073;-80
2024/04/06 01:19:50;;;;;;;14.70;5.20;;;11.60;99.90;;;;;;4966426;28;20045;-79
2024/04/06 01:22:16;;;;;;;12.82;4.93;;;11.60;99.90;;;;;;4981583;28;20545;-80
2024/04/06 01:24:41;;;;;;;15.23;4.90;;;11.60;99.90;;;;;;4968539;28;20061;-80
2024/04/06 01:27:13;;;;;;;15.05;5.10;;;11.60;99.90;;;;;;4993971;28;20038;-80
2024/04/06 01:29:39;;;;;;;12.15;4.22;;;11.60;99.90;;;;;;4962866;28;20173;-79
2024/04/06 01:32:05;;;;;;;13.55;4.90;;;11.60;99.90;;;;;;5013039;28;21228;-80
2024/04/06 01:34:31;;;;;;;15.52;4.65;;;11.60;99.90;;;;;;4967404;28;20053;-80
2024/04/06 01:36:56;;;;;;;14.32;4.15;;;11.60;99.90;;;;;;4981831;28;20458;-79
2024/04/06 01:39:22;;;;;;;15.02;4.38;;;11.60;99.90;;;;;;4982069;28;20042;-80
2024/04/06 01:41:49;;;;;;;10.93;4.32;;;11.60;99.90;;;;;;4985674;28;20041;-80
2024/04/06 01:44:15;;;;;;;13.82;4.18;;;11.60;99.90;;;;;;4977176;28;20069;-80
2024/04/06 01:46:41;;;;;;;14.70;4.97;;;11.60;99.90;;;;;;4971441;28;20132;-80
2024/04/06 01:49:07;;;;;;;18.05;5.53;;;11.70;99.90;;;;;;4977893;28;20076;-80
2024/04/06 01:51:32;;;;;;;11.38;4.60;;;11.70;99.90;;;;;;4984148;28;20031;-80
2024/04/06 01:53:58;;;;;;;16.13;4.75;;;11.70;99.90;;;;;;4976017;28;20199;-80
2024/04/06 01:56:26;;;;;;;14.25;5.00;;;11.80;99.90;;;;;;4977294;28;20045;-80
2024/04/06 01:58:52;;;;;;;18.33;5.28;;;11.70;99.90;;;;;;5005754;28;20033;-81
2024/04/06 02:01:17;;;;;;;13.15;4.53;;;11.80;99.90;;;;;;4970287;28;20046;-80
2024/04/06 02:03:43;;;;;;;11.77;5.28;;;11.80;99.90;;;;;;4975512;28;20556;-80
2024/04/06 02:06:09;;;;;;;13.77;5.00;;;11.80;99.90;;;;;;4986387;28;20080;-80
2024/04/06 02:08:35;;;;;;;15.02;5.07;;;11.80;99.90;;;;;;4969056;28;20046;-80
2024/04/06 02:11:02;;;;;;;13.45;4.80;;;11.80;99.90;;;;;;4971655;28;20053;-79
2024/04/06 02:13:28;;;;;;;12.05;4.28;;;11.80;99.90;;;;;;4986723;28;20380;-80
2024/04/06 02:15:54;;;;;;;11.88;4.30;;;11.80;99.90;;;;;;4989139;28;20044;-79
2024/04/06 02:18:20;;;;;;;11.50;4.10;;;11.80;99.90;;;;;;4976317;28;20038;-80
2024/04/06 02:20:46;;;;;;;10.82;4.15;;;11.90;99.90;;;;;;4974721;28;20319;-80
2024/04/06 02:23:11;;;;;;;11.05;3.85;;;11.80;99.90;;;;;;4975745;28;20550;-80
2024/04/06 02:25:40;;;;;;;8.85;4.00;;;11.80;99.90;;;;;;5019509;28;20045;-80
2024/04/06 02:28:06;;;;;;;12.07;4.30;;;11.80;99.90;;;;;;5010570;28;20042;-79
2024/04/06 02:30:32;;;;;;;12.55;4.30;;;11.80;99.90;;;;;;4983800;28;20046;-80
2024/04/06 02:32:58;;;;;;;9.63;3.45;;;11.80;99.90;;;;;;4973326;28;20038;-79
2024/04/06 02:35:24;;;;;;;12.07;4.25;;;11.80;99.90;;;;;;4972734;28;20080;-80
2024/04/06 02:37:50;;;;;;;12.02;4.90;;;11.80;99.90;;;;;;4974080;28;20062;-79
2024/04/06 02:40:16;;;;;;;12.52;5.07;;;11.80;99.90;;;;;;4970151;28;20046;-80
2024/04/06 02:42:42;;;;;;;14.38;5.28;;;11.80;99.90;;;;;;4974335;28;20651;-80
2024/04/06 02:45:08;;;;;;;11.13;4.78;;;11.80;99.90;;;;;;4984463;28;20100;-80
2024/04/06 02:47:34;;;;;;;13.15;4.90;;;11.80;99.90;;;;;;4973532;28;20487;-80
2024/04/06 02:50:00;;;;;;;13.52;5.93;;;11.80;99.90;;;;;;4991945;28;20058;-80
2024/04/06 02:52:26;;;;;;;10.95;4.85;;;11.70;99.90;;;;;;4967357;28;20046;-79
2024/04/06 02:54:51;;;;;;;12.35;4.82;;;11.70;99.90;;;;;;5001845;28;20074;-80
2024/04/06 02:57:20;;;;;;;12.95;5.50;;;11.70;99.90;;;;;;4967647;28;20471;-80
2024/04/06 02:59:46;;;;;;;11.43;4.95;;;11.70;99.90;;;;;;4997893;28;20056;-80
2024/04/06 03:02:12;;;;;;;8.23;5.25;;;11.70;99.90;;;;;;4990520;28;20076;-79
2024/04/06 03:04:39;;;;;;;9.70;5.22;;;11.70;99.90;;;;;;4982686;28;20666;-86
2024/04/06 03:07:05;;;;;;;10.95;5.63;;;11.70;99.90;;;;;;4991912;28;20041;-80
2024/04/06 03:09:33;;;;;;;11.73;6.03;;;11.70;99.90;;;;;;4972008;28;20065;-80
2024/04/06 03:11:59;;;;;;;9.05;5.22;;;11.60;99.90;;;;;;4972046;28;20438;-79
2024/04/06 03:14:24;;;;;;;10.23;5.55;;;11.70;99.90;;;;;;4979919;28;20077;-80
2024/04/06 03:16:51;;;;;;;11.02;5.85;;;11.60;99.90;;;;;;4969177;28;20073;-80
2024/04/06 03:19:16;;;;;;;11.82;6.97;;;11.70;99.90;;;;;;4969326;28;20077;-80
2024/04/06 03:21:42;;;;;;;12.82;6.28;;;11.60;99.90;;;;;;4979580;28;20073;-79
2024/04/06 03:24:08;;;;;;;10.68;6.10;;;11.70;99.90;;;;;;4966666;28;20038;-79
2024/04/06 03:26:34;;;;;;;11.25;6.32;;;11.60;99.90;;;;;;4980468;28;20037;-79
2024/04/06 03:29:00;;;;;;;12.80;6.55;;;11.60;99.90;;;;;;5000588;28;20089;-79
2024/04/06 03:31:26;;;;;;;10.38;6.25;;;11.50;99.90;;;;;;4987466;28;20443;-79
2024/04/06 03:33:51;;;;;;;10.15;7.05;;;11.60;99.90;;;;;;4971250;28;20104;-79
2024/04/06 03:36:17;;;;;;;16.65;6.78;;;11.60;99.90;;;;;;4984060;28;20054;-80
2024/04/06 03:38:43;;;;;;;12.52;7.22;;;11.50;99.90;;;;;;4987103;28;20073;-79
2024/04/06 03:41:09;;;;;;;15.80;8.10;;;11.60;99.90;;;;;;5020835;28;20409;-80
2024/04/06 03:43:35;;;;;;;13.32;7.38;;;11.60;99.90;;;;;;4968337;28;20459;-80
2024/04/06 03:46:01;;;;;;;12.68;8.43;;;11.60;99.90;;;;;;4974383;28;20062;-80
2024/04/06 03:48:30;;;;;;;13.63;8.45;;;11.60;99.90;;;;;;4974741;28;20096;-80
2024/04/06 03:50:58;;;;;;;13.07;8.20;;;11.60;99.90;;;;;;4999759;28;20073;-80
2024/04/06 03:53:41;;;;;;;12.65;8.32;;;11.60;99.90;;;;;;4971165;28;20046;-80
2024/04/06 03:56:06;;;;;;;11.90;7.60;;;11.60;99.90;;;;;;4971709;28;20066;-80
2024/04/06 03:58:32;;;;;;;14.30;8.43;;;11.60;99.90;;;;;;4983260;28;20126;-80
2024/04/06 04:00:58;;;;;;;11.65;8.80;;;11.70;99.90;;;;;;5012703;28;20649;-80
2024/04/06 04:03:24;;;;;;;12.70;8.98;;;11.70;99.90;;;;;;4982089;28;20083;-80
2024/04/06 04:05:50;;;;;;;12.68;8.20;;;11.70;99.90;;;;;;4981089;28;20238;-80
2024/04/06 04:08:16;;;;;;;11.85;9.15;;;11.70;99.90;;;;;;5001025;28;20065;-80
2024/04/06 04:10:42;;;;;;;12.13;9.18;;;11.70;99.90;;;;;;4967431;28;20057;-80
2024/04/06 04:13:11;;;;;;;13.80;9.15;;;11.80;99.90;;;;;;4968436;28;20113;-79
2024/04/06 04:15:41;;;;;;;12.80;9.23;;;11.80;99.90;;;;;;4971486;28;20132;-80
2024/04/06 04:18:12;;;;;;;14.20;10.20;;;11.80;99.90;;;;;;4971888;28;20431;-80
2024/04/06 04:20:38;;;;;;;13.30;10.48;;;11.80;99.90;;;;;;4983627;28;20081;-80
2024/04/06 04:23:04;;;;;;;11.02;9.40;;;11.90;99.90;;;;;;4984439;28;20038;-80
2024/04/06 04:25:30;;;;;;;10.07;8.93;;;11.90;99.90;;;;;;4986593;28;20096;-80
2024/04/06 04:27:58;;;;;;;13.55;9.90;;;12.00;99.90;;;;;;5016928;28;20033;-80
2024/04/06 04:30:24;;;;;;;11.90;9.57;;;11.90;99.90;;;;;;4970011;28;20053;-79
2024/04/06 04:32:51;;;;;;;10.98;9.15;;;12.00;99.90;;;;;;4983400;28;20399;-80
2024/04/06 04:35:17;;;;;;;13.40;9.88;;;12.00;99.90;;;;;;4999310;28;20050;-80
2024/04/06 04:37:43;;;;;;;11.57;9.48;;;12.00;99.90;;;;;;4998074;28;20503;-79
2024/04/06 04:40:10;;;;;;;11.63;9.77;;;12.00;99.90;;;;;;4988385;28;20050;-80
2024/04/06 04:42:37;;;;;;;12.40;9.70;;;12.10;99.90;;;;;;4968909;28;20072;-80
2024/04/06 04:45:14;;;;;;;13.20;10.35;;;12.10;99.90;;;;;;4970615;28;20418;-80
2024/04/06 04:47:43;;;;;;;12.32;10.75;;;12.10;99.90;;;;;;4979792;28;20107;-80
2024/04/06 04:50:09;;;;;;;12.52;10.00;;;12.10;99.90;;;;;;4973683;28;20049;-80
2024/04/06 04:52:35;;;;;;;11.20;9.73;;;12.20;99.90;;;;;;4980296;28;20132;-80
2024/04/06 04:55:02;;;;;;;12.15;10.77;;;12.20;99.90;;;;;;5020296;28;20144;-80
2024/04/06 04:57:31;;;;;;;11.98;9.82;;;12.20;99.90;;;;;;4967926;28;22073;-80
2024/04/06 04:59:57;;;;;;;11.83;9.73;;;12.20;99.90;;;;;;4985643;28;20761;-80
2024/04/06 05:02:24;;;;;;;11.63;10.40;;;12.20;99.90;;;;;;4984043;28;20044;-80
2024/04/06 05:04:49;;;;;;;14.85;10.02;;;12.20;99.90;;;;;;4987922;28;20078;-80
2024/04/06 05:07:15;;;;;;;12.45;11.15;;;12.20;99.90;;;;;;4970884;28;20073;-80
2024/04/06 05:09:41;;;;;;;13.30;10.10;;;12.20;99.90;;;;;;4985524;28;20088;-80
2024/04/06 05:12:07;;;;;;;13.43;10.85;;;12.20;99.90;;;;;;4967535;28;20057;-80
2024/04/06 05:14:33;;;;;;;13.73;12.32;;;12.20;99.90;;;;;;4985708;28;20526;-80
2024/04/06 05:16:59;;;;;;;12.60;11.30;;;12.30;99.90;;;;;;4970434;28;20498;-80
2024/04/06 05:19:27;;;;;;;13.57;11.23;;;12.20;99.90;;;;;;4983106;28;20046;-80
2024/04/06 05:21:53;;;;;;;11.90;10.70;;;12.30;99.90;;;;;;4970724;28;20081;-80
2024/04/06 05:24:19;;;;;;;13.05;11.68;;;12.30;99.90;;;;;;4983687;28;20065;-80
2024/04/06 05:26:45;;;;;;;12.57;11.27;;;12.30;99.90;;;;;;4982478;28;20053;-80
2024/04/06 05:29:11;;;;;;;13.82;10.65;;;12.30;99.90;;;;;;4971655;28;20085;-80
2024/04/06 05:31:40;;;;;;;14.18;10.70;;;12.30;99.90;;;;;;4970143;28;20046;-80
2024/04/06 05:34:06;;;;;;;11.68;10.45;;;12.30;99.90;;;;;;4967791;28;20593;-80
2024/04/06 05:36:32;;;;;;;12.35;10.57;;;12.30;99.90;;;;;;4969122;28;20061;-80
2024/04/06 05:38:59;;;;;;;11.95;10.73;;;12.40;99.90;;;;;;4968937;28;20070;-80
2024/04/06 05:41:28;;;;;;;11.02;9.80;;;12.40;99.90;;;;;;4969405;28;20423;-80
2024/04/06 05:43:54;;;;;;;11.10;9.88;;;12.50;99.90;;;;;;4986816;28;20826;-79
2024/04/06 05:46:20;;;;;;;11.88;9.57;;;12.50;99.90;;;;;;4968384;28;20053;-80
2024/04/06 05:48:45;;;;;;;12.98;9.40;;;12.50;99.90;;;;;;4987472;28;20060;-79
2024/04/06 05:51:11;;;;;;;12.30;10.75;;;12.50;99.90;;;;;;4967538;28;20052;-79
2024/04/06 05:53:41;;;;;;;10.65;9.10;;;12.50;99.90;;;;;;5002822;28;20096;-80
2024/04/06 05:56:10;;;;;;;10.97;9.33;;;12.60;99.90;;;;;;4981825;28;20088;-80
2024/04/06 05:58:37;;;;;;;10.65;9.40;;;12.70;99.90;;;;;;4978615;28;20677;-80
2024/04/06 06:01:05;;;;;;;9.68;8.18;;;12.70;99.90;;;;;;4982612;28;20104;-80
2024/04/06 06:03:31;;;;;;;9.65;8.02;;;12.70;99.90;;;;;;4963349;28;20136;-80
2024/04/06 06:05:57;;;;;;;10.15;8.23;;;12.80;99.90;;;;;;4984573;28;20030;-80
2024/04/06 06:08:23;;;;;;;11.90;7.53;;;12.90;99.90;;;;;;4969272;28;20092;-79
2024/04/06 06:10:49;;;;;;;9.90;7.53;;;12.90;99.90;;;;;;4999117;28;20442;-79
2024/04/06 06:13:14;;;;;;;8.63;6.93;;;13.00;99.90;;;;;;4970497;28;20056;-80
2024/04/06 06:15:40;;;;;;;8.23;6.70;;;13.00;99.90;;;;;;4965897;28;20187;-80
2024/04/06 06:18:07;;;;;;;8.90;6.70;;;13.10;99.90;;;;;;4970329;28;20049;-79
2024/04/06 06:20:33;;;;;;;8.70;6.13;;;13.20;99.90;;;;;;4983367;28;20580;-79
2024/04/06 06:22:58;;;;;;;7.43;6.18;;;13.20;99.90;;;;;;4969568;28;20053;-80
2024/04/06 06:25:24;;;;;;;8.55;5.38;;;13.30;99.90;;;;;;4971146;28;20045;-80
2024/04/06 06:27:51;;;;;;;7.30;5.65;;;13.40;99.90;;;;;;4987169;28;20387;-80
2024/04/06 06:30:16;;;;;;;7.75;5.75;;;13.40;99.90;;;;;;4985119;28;20406;-79
2024/04/06 06:32:42;;;;;;;5.78;5.20;;;13.40;99.90;;;;;;4987491;28;20103;-80
2024/04/06 06:35:08;;;;;;;8.02;5.70;;;13.40;99.90;;;;;;5004351;28;20064;-79
2024/04/06 06:37:35;;;;;;;8.90;5.55;;;13.40;99.90;;;;;;4973162;28;20498;-79
2024/04/06 06:40:01;;;;;;;5.85;4.90;;;13.50;99.90;;;;;;4983311;28;20116;-80
2024/04/06 06:42:29;;;;;;;6.80;5.10;;;13.60;99.90;;;;;;4970661;28;20045;-80
2024/04/06 06:44:55;;;;;;;10.20;5.25;;;13.80;99.90;;;;;;4985531;28;20587;-80
2024/04/06 06:47:22;;;;;;;9.88;5.10;;;13.90;99.90;;;;;;4971281;28;20041;-81
2024/04/06 06:49:48;;;;;;;7.63;4.78;;;14.00;99.90;;;;;;4971150;28;20037;-81
2024/04/06 06:52:14;;;;;;;7.28;4.93;;;14.00;99.90;;;;;;4973176;28;20061;-81
2024/04/06 06:54:40;;;;;;;7.43;4.75;;;14.10;99.90;;;;;;4986492;28;20046;-82
2024/04/06 06:57:05;;;;;;;7.45;4.30;;;14.10;99.90;;;;;;4970611;28;20037;-80
2024/04/06 06:59:31;;;;;;;7.97;4.85;;;14.10;99.90;;;;;;4987981;28;20052;-80
2024/04/06 07:01:57;;;;;;;7.50;4.60;;;14.20;99.90;;;;;;4987983;28;20050;-80
2024/04/06 07:04:23;;;;;;;6.22;4.22;;;14.20;99.90;;;;;;4974644;28;20046;-80
2024/04/06 07:06:49;;;;;;;6.72;4.13;;;14.20;99.90;;;;;;4988094;28;20129;-80
2024/04/06 07:09:15;;;;;;;6.10;3.88;;;14.30;99.90;;;;;;4976695;28;20124;-81
2024/04/06 07:11:41;;;;;;;6.07;4.15;;;14.40;99.90;;;;;;4971367;28;20449;-80
2024/04/06 07:14:11;;;;;;;5.60;3.97;;;14.40;99.90;;;;;;4972296;28;20120;-81
2024/04/06 07:16:37;;;;;;;6.22;4.30;;;14.50;99.90;;;;;;4972151;28;20039;-80
2024/04/06 07:19:04;;;;;;;6.53;4.38;;;14.60;99.90;;;;;;4973575;28;20105;-80
2024/04/06 07:21:29;;;;;;;7.60;4.00;;;14.70;99.90;;;;;;4974126;28;20046;-81
2024/04/06 07:23:55;;;;;;;6.78;3.75;;;14.90;99.90;;;;;;4975809;28;20038;-81
2024/04/06 07:26:21;;;;;;;8.02;4.38;;;14.90;99.90;;;;;;4986296;28;20460;-83
2024/04/06 07:28:46;;;;;;;6.50;4.10;;;15.00;99.90;;;;;;5006373;28;20050;-81
2024/04/06 07:31:12;;;;;;;6.22;3.70;;;15.00;99.90;;;;;;4972890;28;20041;-80
2024/04/06 07:33:38;;;;;;;5.63;3.60;;;15.10;99.90;;;;;;4991378;28;20046;-80
2024/04/06 07:36:04;;;;;;;5.93;3.45;;;15.10;99.90;;;;;;4989322;28;20507;-81
2024/04/06 07:38:30;;;;;;;5.88;3.80;;;15.10;99.90;;;;;;4990209;28;20121;-81
2024/04/06 07:41:01;;;;;;;6.05;3.67;;;15.30;99.90;;;;;;5002969;28;20121;-81
2024/04/06 07:43:27;;;;;;;6.32;3.40;;;15.40;99.90;;;;;;4973132;28;20054;-80
2024/04/06 07:45:53;;;;;;;5.28;3.45;;;15.60;99.90;;;;;;4992771;28;20038;-80
2024/04/06 07:48:19;;;;;;;6.65;3.42;;;15.80;99.90;;;;;;4990133;28;20049;-81
2024/04/06 07:50:45;;;;;;;6.22;3.38;;;16.00;99.90;;;;;;4987994;28;20042;-80
2024/04/06 07:53:11;;;;;;;6.13;3.20;;;16.10;99.90;;;;;;4974061;28;20081;-80
2024/04/06 07:55:40;;;;;;;5.15;3.30;;;16.20;99.90;;;;;;4989219;28;20057;-81
2024/04/06 07:58:06;;;;;;;7.93;3.85;;;16.30;99.90;;;;;;4976852;28;20050;-81
2024/04/06 08:00:36;;;;;;;6.88;3.53;;;16.50;99.90;;;;;;4982574;28;20036;-81
2024/04/06 08:03:06;;;;;;;7.35;3.83;;;16.60;99.90;;;;;;4985075;28;20045;-80
2024/04/06 08:05:32;;;;;;;5.65;3.30;;;16.70;99.90;;;;;;4987279;28;20045;-80
2024/04/06 08:07:59;;;;;;;6.28;3.33;;;16.90;99.90;;;;;;4968992;28;20054;-80
2024/04/06 08:10:25;;;;;;;6.63;3.35;;;17.00;99.90;;;;;;4968833;28;20851;-78
2024/04/06 08:12:53;;;;;;;5.72;2.92;;;17.10;99.90;;;;;;4988202;28;20045;-80
2024/04/06 08:15:19;;;;;;;5.57;2.95;;;17.10;99.90;;;;;;5002631;28;20054;-81
2024/04/06 08:17:48;;;;;;;7.47;3.70;;;17.20;99.90;;;;;;4988124;28;20526;-80
2024/04/06 08:20:14;;;;;;;6.32;3.67;;;17.20;99.90;;;;;;4970679;28;20100;-81
2024/04/06 08:22:41;;;;;;;7.38;2.97;;;17.30;99.90;;;;;;4987163;28;20050;-81
2024/04/06 08:25:10;;;;;;;6.65;3.55;;;17.50;99.90;;;;;;4998481;28;20577;-81
2024/04/06 08:27:36;;;;;;;6.60;3.50;;;17.70;99.90;;;;;;4985022;28;20038;-80
2024/04/06 08:30:07;;;;;;;5.57;3.05;;;17.80;99.90;;;;;;4973691;28;20072;-81
2024/04/06 08:32:40;;;;;;;6.32;3.20;;;17.80;99.90;;;;;;4972987;28;20045;-80
2024/04/06 08:35:11;;;;;;;5.97;3.00;;;17.90;99.90;;;;;;4989040;28;20080;-81
2024/04/06 08:37:40;;;;;;;6.78;3.28;;;18.00;99.90;;;;;;4972566;28;20530;-81
2024/04/06 08:40:10;;;;;;;6.20;2.72;;;18.20;99.90;;;;;;4987454;28;20513;-80
2024/04/06 08:42:45;;;;;;;6.82;2.90;;;18.40;99.90;;;;;;5018259;28;20046;-80
2024/04/06 08:45:12;;;;;;;4.55;2.90;;;18.70;99.90;;;;;;4969265;28;20062;-81
2024/04/06 08:47:41;;;;;;;5.35;2.83;;;18.80;99.90;;;;;;4987215;28;20046;-80
2024/04/06 08:50:09;;;;;;;4.78;2.63;;;18.80;99.90;;;;;;4974153;28;20037;-80
2024/04/06 08:52:38;;;;;;;4.53;2.53;;;18.70;99.90;;;;;;5001653;28;20046;-84
2024/04/06 08:55:11;;;;;;;5.50;2.60;;;18.60;99.90;;;;;;4972566;28;20125;-83
2024/04/06 08:57:38;;;;;;;4.63;2.30;;;18.60;99.90;;;;;;4968964;28;20037;-80
2024/04/06 09:00:07;;;;;;;4.70;2.42;;;18.50;99.90;;;;;;4966966;28;20050;-80
2024/04/06 09:02:35;;;;;;;6.07;2.97;;;18.60;99.90;;;;;;4972146;28;20042;-80
2024/04/06 09:05:02;;;;;;;7.60;2.83;;;18.60;99.90;;;;;;4961947;28;20041;-80
2024/04/06 09:07:28;;;;;;;4.45;2.53;;;18.80;99.90;;;;;;4987324;28;20042;-80
2024/04/06 09:09:57;;;;;;;5.28;2.50;;;19.00;99.90;;;;;;4983665;28;20034;-80
2024/04/06 09:12:23;;;;;;;7.10;2.97;;;19.20;99.90;;;;;;4985409;28;20046;-80
2024/04/06 09:14:49;;;;;;;5.88;2.40;;;19.30;99.90;;;;;;4986006;28;20093;-83
2024/04/06 09:17:17;;;;;;;5.38;2.55;;;19.50;99.90;;;;;;4969400;28;20441;-82
2024/04/06 09:19:43;;;;;;;4.28;2.38;;;19.60;99.90;;;;;;4986348;28;20112;-83
2024/04/06 09:22:10;;;;;;;4.22;2.30;;;19.80;99.90;;;;;;4986340;28;20042;-83
2024/04/06 09:24:39;;;;;;;5.00;2.75;;;19.90;99.90;;;;;;5004078;28;20058;-83
2024/04/06 09:27:09;;;;;;;5.82;2.30;;;20.00;99.90;;;;;;4968634;28;20042;-82
2024/04/06 09:29:36;;;;;;;4.10;2.10;;;20.10;99.90;;;;;;4972357;28;20111;-83
2024/04/06 09:32:03;;;;;;;5.75;2.50;;;20.20;99.90;;;;;;4970840;28;20077;-81
2024/04/06 09:34:30;;;;;;;5.05;2.53;;;20.30;99.90;;;;;;4968260;28;20042;-81
2024/04/06 09:37:02;;;;;;;5.30;2.10;;;20.40;99.90;;;;;;4986630;28;20053;-81
2024/04/06 09:39:33;;;;;;;4.53;1.90;;;20.50;99.90;;;;;;4986704;28;20402;-83
2024/04/06 09:42:01;;;;;;;5.32;2.17;;;20.60;99.90;;;;;;5017428;28;20081;-81
2024/04/06 09:44:32;;;;;;;5.00;2.47;;;20.70;99.90;;;;;;4970056;28;20137;-82
2024/04/06 09:46:58;;;;;;;5.05;2.17;;;20.80;99.90;;;;;;4990468;28;20050;-83
2024/04/06 09:49:27;;;;;;;4.68;1.90;;;20.90;99.90;;;;;;4985289;28;20124;-83
2024/04/06 09:51:53;;;;;;;4.82;1.90;;;21.00;99.90;;;;;;4972250;28;20667;-81
2024/04/06 09:54:20;;;;;;;3.63;1.70;;;21.10;99.90;;;;;;4984008;28;20060;-82
2024/04/06 09:56:52;;;;;;;4.65;1.98;;;21.20;99.90;;;;;;4999593;28;20049;-82
2024/04/06 09:59:22;;;;;;;3.72;1.80;;;21.30;99.90;;;;;;4971414;28;20057;-82
2024/04/06 10:01:48;;;;;;;;;;;21.40;99.90;;;;;;4973439;28;20082;-82
2024/04/06 10:04:32;;;;;;;3.75;1.95;;;21.60;99.90;;;;;;4972746;28;19964;-82
2024/04/06 10:07:02;;;;;;;3.63;1.88;;;21.70;99.90;;;;;;4988857;28;20046;-81
2024/04/06 10:09:31;;;;;;;3.90;2.00;;;21.80;99.90;;;;;;4975321;28;20045;-82
2024/04/06 10:12:02;;;;;;;4.55;2.05;;;21.80;99.90;;;;;;4974961;28;20096;-81
2024/04/06 10:14:31;;;;;;;5.00;1.88;;;22.00;99.90;;;;;;4976915;28;20061;-80
2024/04/06 10:17:10;;;;;;;6.90;2.03;;;22.10;99.90;;;;;;4987668;28;20136;-80
2024/04/06 10:19:38;;;;;;;4.95;1.80;;;22.00;99.90;;;;;;4987344;28;20078;-82
2024/04/06 10:22:06;;;;;;;5.05;2.20;;;22.20;99.90;;;;;;4974045;28;20518;-82
2024/04/06 10:24:34;;;;;;;4.55;1.92;;;22.10;99.90;;;;;;5007602;28;20045;-81
2024/04/06 10:27:00;;;;;;;4.80;1.58;;;22.30;99.90;;;;;;4990153;28;20498;-81
2024/04/06 10:29:34;;;;;;;4.30;1.58;;;22.40;99.90;;;;;;4978563;28;20167;-81
2024/04/06 10:31:59;;;;;;;4.75;1.80;;;22.50;99.90;;;;;;4990145;28;20052;-81
2024/04/06 10:34:25;;;;;;;4.50;1.80;;;22.60;99.90;;;;;;4972175;28;20398;-82
2024/04/06 10:36:51;;;;;;;3.08;1.45;;;22.60;99.90;;;;;;5018050;28;20045;-81
2024/04/06 10:39:18;;;;;;;3.88;1.60;;;22.70;99.90;;;;;;4972758;28;20605;-81
2024/04/06 10:41:43;;;;;;;3.05;1.50;;;22.80;99.90;;;;;;4986157;28;20127;-81
2024/04/06 10:44:10;;;;;;;4.03;1.70;;;22.80;99.90;;;;;;4972357;28;20073;-83
2024/04/06 10:46:36;;;;;;;3.42;1.60;;;22.90;99.90;;;;;;4972674;28;20038;-81
2024/04/06 10:49:09;;;;;;;3.13;1.30;;;22.90;99.90;;;;;;4973442;28;20030;-81
2024/04/06 10:51:39;;;;;;;3.55;1.58;;;22.90;99.90;;;;;;5001108;28;20135;-82
2024/04/06 10:54:05;;;;;;;5.20;1.60;;;22.90;99.90;;;;;;5014977;28;20053;-81
2024/04/06 10:56:33;;;;;;;4.35;1.52;;;22.90;99.90;;;;;;4997747;28;20049;-81
2024/04/06 10:59:00;;;;;;;4.10;1.50;;;22.90;99.90;;;;;;4998067;28;20053;-83
2024/04/06 11:01:26;;;;;;;3.55;1.60;;;22.90;99.90;;;;;;5013525;28;20143;-82
2024/04/06 11:03:52;;;;;;;4.03;1.48;;;22.80;99.90;;;;;;5011793;28;20108;-81
2024/04/06 11:06:18;;;;;;;4.55;1.65;;;22.70;99.90;;;;;;4996800;28;20144;-81
2024/04/06 11:08:45;;;;;;;4.60;1.60;;;22.70;99.90;;;;;;5002948;28;20125;-82
2024/04/06 11:11:12;;;;;;;6.40;1.67;;;22.70;99.90;;;;;;5008801;28;20061;-81
2024/04/06 11:13:41;;;;;;;5.18;1.92;;;22.60;99.90;;;;;;4997190;28;20387;-82
2024/04/06 11:16:10;;;;;;;5.15;1.83;;;22.50;99.90;;;;;;4977284;28;20046;-82
2024/04/06 11:18:43;;;;;;;4.00;1.58;;;22.50;99.90;;;;;;4975813;28;20121;-81
2024/04/06 11:21:13;;;;;;;6.70;2.17;;;22.40;99.90;;;;;;4960472;28;20150;-82
2024/04/06 11:23:40;;;;;;;3.80;1.55;;;22.40;99.90;;;;;;5008664;28;20088;-81
2024/04/06 11:26:07;;;;;;;4.22;1.85;;;22.30;99.90;;;;;;4971381;28;20061;-81
2024/04/06 11:28:33;;;;;;;4.65;1.90;;;22.40;99.90;;;;;;5001625;28;20037;-81
2024/04/06 11:31:00;;;;;;;4.70;1.70;;;22.50;99.90;;;;;;5007783;28;20046;-81
2024/04/06 11:33:29;;;;;;;3.53;1.67;;;22.50;99.90;;;;;;4984984;28;20054;-81
2024/04/06 11:35:56;;;;;;;4.55;1.85;;;22.50;99.90;;;;;;4988271;28;20068;-80
2024/04/06 11:38:22;;;;;;;4.00;1.85;;;22.60;99.90;;;;;;4999702;28;20475;-81
2024/04/06 11:40:56;;;;;;;3.42;1.73;;;22.70;99.90;;;;;;4997617;28;20050;-82
2024/04/06 11:43:21;;;;;;;3.58;1.77;;;22.80;99.90;;;;;;5000887;28;20514;-82
2024/04/06 11:45:49;;;;;;;5.97;1.95;;;22.80;99.90;;;;;;4982786;28;20049;-83
2024/04/06 11:48:15;;;;;;;4.50;1.77;;;22.80;99.90;;;;;;5002005;28;20070;-81
2024/04/06 11:50:41;;;;;;;4.43;1.92;;;22.90;99.90;;;;;;4991312;28;20053;-83
2024/04/06 11:53:10;;;;;;;5.18;1.70;;;22.90;99.90;;;;;;4979709;28;20498;-84
2024/04/06 11:55:37;;;;;;;3.72;1.48;;;22.90;99.90;;;;;;4963949;28;20125;-83
2024/04/06 11:58:04;;;;;;;5.80;1.80;;;22.90;99.90;;;;;;5006179;28;20089;-82
2024/04/06 12:00:33;;;;;;;5.32;1.70;;;22.90;99.90;;;;;;5012618;28;20072;-83
2024/04/06 12:03:03;;;;;;;5.63;1.75;;;23.00;99.90;;;;;;4972887;28;20034;-83
2024/04/06 12:05:28;;;;;;;4.80;2.10;;;23.00;99.90;;;;;;5007569;28;20042;-83
2024/04/06 12:07:54;;;;;;;6.30;1.83;;;23.10;99.90;;;;;;4977014;28;20652;-83
2024/04/06 12:10:23;;;;;;;4.65;1.77;;;23.20;99.90;;;;;;4983048;28;20069;-82
2024/04/06 12:12:49;;;;;;;4.88;1.90;;;23.20;99.90;;;;;;4964085;28;20044;-82
2024/04/06 12:15:47;;;;;;;;;;;;;;;;;;;;;
2024/04/06 12:18:13;;;;;;;3.55;1.90;;;23.40;99.90;;;;;;4955766;28;20112;-83
2024/04/06 12:20:39;;;;;;;4.45;1.88;;;23.50;99.90;;;;;;4949051;28;20046;-83
2024/04/06 12:23:08;;;;;;;3.58;1.40;;;23.60;99.90;;;;;;4963976;28;20039;-82
2024/04/06 12:25:34;;;;;;;4.10;1.30;;;23.60;99.90;;;;;;4952927;28;20123;-83
2024/04/06 12:28:00;;;;;;;3.30;1.52;;;23.60;99.90;;;;;;4961027;28;20042;-82
2024/04/06 12:30:26;;;;;;;3.63;1.70;;;23.50;99.20;;;;;;4969108;28;20411;-82
2024/04/06 12:32:51;;;;;;;5.47;1.80;;;23.50;99.40;;;;;;4953288;28;20038;-81
2024/04/06 12:35:17;;;;;;;6.90;1.90;;;23.50;98.00;;;;;;4948544;28;20241;-81
2024/04/06 12:37:43;;;;;;;4.68;1.63;;;23.50;98.80;;;;;;4954719;28;20068;-84
2024/04/06 12:40:10;;;;;;;5.75;1.40;;;23.50;98.40;;;;;;4957526;28;20517;-83
2024/04/06 12:42:36;;;;;;;3.20;1.63;;;23.70;98.30;;;;;;4948618;28;20490;-83